Time;durP1;ratioP1;P1;durP2;ratioP2;P2;SDS_P1;SDS_P2;PMS_P1;PMS_P2;Temp;Humidity;BMP_temperature;BMP_pressure;BME280_temperature;BME280_humidity;BME280_pressure;Samples;Min_cycle;Max_cycle;Signal;HPM_P1;HPM_P2
2021/07/31 00:01:47;;;;;;;16.85;8.50;;;;;;;;;;5074373;28;20127;-62
2021/07/31 00:04:13;;;;;;;16.02;8.38;;;;;;;;;;5092795;28;20093;-62
2021/07/31 00:06:39;;;;;;;16.60;8.18;;;;;;;;;;5074227;28;20055;-62
2021/07/31 00:09:05;;;;;;;17.27;8.80;;;;;;;;;;5092575;28;20023;-62
2021/07/31 00:11:31;;;;;;;17.75;8.10;;;;;;;;;;5092309;28;20024;-63
2021/07/31 00:13:56;;;;;;;16.98;8.25;;;;;;;;;;5074080;28;20119;-62
2021/07/31 00:16:23;;;;;;;15.63;8.20;;;;;;;;;;5074005;28;20016;-63
2021/07/31 00:18:49;;;;;;;15.43;8.32;;;;;;;;;;5074097;28;20028;-62
2021/07/31 00:21:14;;;;;;;16.33;7.90;;;;;;;;;;5074301;28;20073;-62
2021/07/31 00:23:40;;;;;;;18.13;9.07;;;;;;;;;;5074064;28;20028;-62
2021/07/31 00:26:06;;;;;;;17.60;8.68;;;;;;;;;;5092013;28;20024;-62
2021/07/31 00:28:32;;;;;;;19.80;8.88;;;;;;;;;;5091996;28;20360;-62
2021/07/31 00:30:58;;;;;;;14.57;8.43;;;;;;;;;;5092192;28;20032;-62
2021/07/31 00:33:24;;;;;;;16.67;8.75;;;;;;;;;;5092059;28;20027;-62
2021/07/31 00:35:50;;;;;;;16.98;8.38;;;;;;;;;;5091806;28;20387;-62
2021/07/31 00:38:16;;;;;;;17.67;8.38;;;;;;;;;;5073687;28;20032;-62
2021/07/31 00:40:42;;;;;;;17.15;8.50;;;;;;;;;;5091992;28;20111;-62
2021/07/31 00:43:09;;;;;;;16.10;8.73;;;;;;;;;;5091817;28;20076;-62
2021/07/31 00:45:36;;;;;;;15.75;8.60;;;;;;;;;;5073591;28;20555;-63
2021/07/31 00:48:02;;;;;;;16.90;8.27;;;;;;;;;;5091737;28;20039;-63
2021/07/31 00:50:31;;;;;;;17.23;8.40;;;;;;;;;;5090786;28;20476;-62
2021/07/31 00:52:57;;;;;;;16.35;8.90;;;;;;;;;;5073365;28;20037;-61
2021/07/31 00:55:23;;;;;;;15.27;8.38;;;;;;;;;;5091379;28;20016;-61
2021/07/31 00:57:50;;;;;;;17.67;8.50;;;;;;;;;;5073624;28;20516;-62
2021/07/31 01:00:16;;;;;;;17.38;9.00;;;;;;;;;;5073550;28;20031;-62
2021/07/31 01:02:42;;;;;;;14.50;8.13;;;;;;;;;;5091549;28;20564;-62
2021/07/31 01:05:08;;;;;;;19.80;9.18;;;;;;;;;;5091277;28;20032;-61
2021/07/31 01:07:38;;;;;;;17.23;8.48;;;;;;;;;;5091434;28;20089;-62
2021/07/31 01:10:04;;;;;;;16.08;8.70;;;;;;;;;;5091357;28;20031;-62
2021/07/31 01:12:33;;;;;;;17.23;9.10;;;;;;;;;;5072826;28;20491;-63
2021/07/31 01:14:58;;;;;;;;;;;;;;;;;;5073471;28;20093;-62
2021/07/31 01:17:25;;;;;;;21.10;9.38;;;;;;;;;;5091033;28;19908;-62
2021/07/31 01:19:51;;;;;;;14.52;8.35;;;;;;;;;;5073179;28;20477;-62
2021/07/31 01:22:17;;;;;;;17.08;8.50;;;;;;;;;;5091232;28;20024;-60
2021/07/31 01:24:43;;;;;;;17.02;8.68;;;;;;;;;;5091138;28;20024;-60
2021/07/31 01:27:09;;;;;;;17.33;8.65;;;;;;;;;;5090603;28;20051;-62
2021/07/31 01:29:35;;;;;;;17.03;8.20;;;;;;;;;;5090982;28;20468;-62
2021/07/31 01:32:01;;;;;;;14.93;8.60;;;;;;;;;;5072940;28;20406;-62
2021/07/31 01:34:27;;;;;;;17.48;9.30;;;;;;;;;;5090785;28;20059;-63
2021/07/31 01:36:53;;;;;;;16.75;8.90;;;;;;;;;;5090481;28;20056;-62
2021/07/31 01:39:19;;;;;;;16.48;8.93;;;;;;;;;;5090978;28;20391;-63
2021/07/31 01:41:45;;;;;;;18.35;9.05;;;;;;;;;;5072435;28;20144;-62
2021/07/31 01:44:11;;;;;;;18.20;8.85;;;;;;;;;;5091000;28;20031;-61
2021/07/31 01:46:37;;;;;;;14.40;8.55;;;;;;;;;;5091248;28;20024;-61
2021/07/31 01:49:03;;;;;;;15.00;8.40;;;;;;;;;;5090831;28;20032;-61
2021/07/31 01:51:29;;;;;;;16.85;8.77;;;;;;;;;;5090686;28;20111;-62
2021/07/31 01:53:55;;;;;;;16.20;8.80;;;;;;;;;;5090944;28;20027;-61
2021/07/31 01:56:21;;;;;;;16.67;9.20;;;;;;;;;;5072537;28;20636;-61
2021/07/31 01:58:47;;;;;;;19.63;9.07;;;;;;;;;;5090831;28;20027;-61
2021/07/31 02:01:13;;;;;;;18.65;9.27;;;;;;;;;;5074043;28;20074;-61
2021/07/31 02:03:39;;;;;;;18.17;9.10;;;;;;;;;;5094899;28;20016;-61
2021/07/31 02:06:05;;;;;;;15.93;8.77;;;;;;;;;;5076501;28;20074;-62
2021/07/31 02:08:31;;;;;;;16.88;8.90;;;;;;;;;;5094623;28;20032;-62
2021/07/31 02:10:57;;;;;;;16.85;8.80;;;;;;;;;;5076546;28;20031;-61
2021/07/31 02:13:23;;;;;;;17.27;8.82;;;;;;;;;;5076584;28;20024;-61
2021/07/31 02:15:49;;;;;;;17.90;8.93;;;;;;;;;;5094364;28;20503;-62
2021/07/31 02:18:15;;;;;;;14.65;8.75;;;;;;;;;;5094819;28;20095;-62
2021/07/31 02:20:41;;;;;;;15.10;8.98;;;;;;;;;;5094834;28;20511;-62
2021/07/31 02:23:07;;;;;;;16.05;8.65;;;;;;;;;;5094835;28;20026;-61
2021/07/31 02:25:33;;;;;;;16.13;8.70;;;;;;;;;;5076149;28;20032;-61
2021/07/31 02:27:59;;;;;;;16.38;9.90;;;;;;;;;;5094396;28;20476;-61
2021/07/31 02:30:25;;;;;;;15.32;8.27;;;;;;;;;;5094295;28;20021;-61
2021/07/31 02:32:51;;;;;;;15.15;9.20;;;;;;;;;;5094307;28;20028;-61
2021/07/31 02:35:17;;;;;;;19.80;9.30;;;;;;;;;;5094031;28;20024;-63
2021/07/31 02:37:44;;;;;;;16.13;8.80;;;;;;;;;;5075844;28;20055;-62
2021/07/31 02:40:10;;;;;;;15.18;8.50;;;;;;;;;;5075851;28;20499;-61
2021/07/31 02:42:36;;;;;;;16.23;8.73;;;;;;;;;;5094231;28;20021;-61
2021/07/31 02:45:03;;;;;;;17.13;8.80;;;;;;;;;;5075856;28;20036;-62
2021/07/31 02:47:29;;;;;;;18.15;8.60;;;;;;;;;;5094046;28;20185;-62
2021/07/31 02:49:56;;;;;;;15.80;8.20;;;;;;;;;;5093945;28;20028;-61
2021/07/31 02:52:22;;;;;;;21.23;9.30;;;;;;;;;;5094191;28;20020;-61
2021/07/31 02:54:48;;;;;;;16.75;9.20;;;;;;;;;;5075961;28;20407;-61
2021/07/31 02:57:14;;;;;;;18.25;9.10;;;;;;;;;;5075598;28;20036;-61
2021/07/31 02:59:40;;;;;;;15.90;8.95;;;;;;;;;;5093850;28;20034;-62
2021/07/31 03:02:06;;;;;;;15.05;8.40;;;;;;;;;;5075799;28;20024;-62
2021/07/31 03:04:32;;;;;;;15.00;8.93;;;;;;;;;;5094024;28;20032;-61
2021/07/31 03:06:58;;;;;;;15.52;8.95;;;;;;;;;;5075421;28;20024;-63
2021/07/31 03:09:24;;;;;;;17.70;8.90;;;;;;;;;;5075850;28;20030;-61
2021/07/31 03:11:50;;;;;;;17.42;9.10;;;;;;;;;;5075401;28;20122;-61
2021/07/31 03:14:16;;;;;;;16.17;9.05;;;;;;;;;;5074556;28;20020;-61
2021/07/31 03:16:42;;;;;;;16.20;8.57;;;;;;;;;;5093313;28;20104;-61
2021/07/31 03:19:08;;;;;;;16.92;9.05;;;;;;;;;;5093252;28;20138;-60
2021/07/31 03:21:35;;;;;;;19.23;8.95;;;;;;;;;;5075244;28;20498;-60
2021/07/31 03:24:00;;;;;;;16.13;9.02;;;;;;;;;;5093240;28;20027;-61
2021/07/31 03:26:26;;;;;;;17.67;8.77;;;;;;;;;;5093412;28;20480;-61
2021/07/31 03:28:52;;;;;;;17.05;8.73;;;;;;;;;;5075362;28;20035;-60
2021/07/31 03:31:19;;;;;;;16.60;8.75;;;;;;;;;;5093373;28;20616;-60
2021/07/31 03:33:45;;;;;;;18.48;8.45;;;;;;;;;;5093055;28;20027;-60
2021/07/31 03:36:11;;;;;;;20.27;9.32;;;;;;;;;;5092850;28;20080;-60
2021/07/31 03:38:37;;;;;;;16.80;9.00;;;;;;;;;;5074564;28;20031;-60
2021/07/31 03:41:03;;;;;;;16.52;8.77;;;;;;;;;;5074645;28;20471;-60
2021/07/31 03:43:29;;;;;;;18.48;10.13;;;;;;;;;;5092974;28;20028;-60
2021/07/31 03:45:55;;;;;;;19.45;9.18;;;;;;;;;;5092798;28;20089;-60
2021/07/31 03:48:21;;;;;;;15.75;8.80;;;;;;;;;;5074767;28;20118;-60
2021/07/31 03:50:47;;;;;;;19.33;9.20;;;;;;;;;;5092887;28;20058;-60
2021/07/31 03:53:13;;;;;;;17.05;9.00;;;;;;;;;;5092891;28;20020;-60
2021/07/31 03:55:39;;;;;;;17.65;9.32;;;;;;;;;;5074462;28;20081;-62
2021/07/31 03:58:05;;;;;;;17.10;9.07;;;;;;;;;;5092916;28;20024;-62
2021/07/31 04:00:31;;;;;;;16.48;8.70;;;;;;;;;;5074448;28;20020;-62
2021/07/31 04:02:57;;;;;;;16.70;9.27;;;;;;;;;;5092919;28;20031;-62
2021/07/31 04:05:23;;;;;;;18.90;8.55;;;;;;;;;;5074435;28;20024;-61
2021/07/31 04:07:49;;;;;;;21.70;8.82;;;;;;;;;;5092574;28;20541;-61
2021/07/31 04:10:15;;;;;;;17.55;8.85;;;;;;;;;;5074393;28;20035;-61
2021/07/31 04:12:41;;;;;;;16.17;8.52;;;;;;;;;;5092570;28;20077;-61
2021/07/31 04:15:09;;;;;;;17.42;8.65;;;;;;;;;;5074419;28;20032;-59
2021/07/31 04:17:35;;;;;;;16.05;8.45;;;;;;;;;;5092548;28;20016;-61
2021/07/31 04:20:01;;;;;;;19.73;9.15;;;;;;;;;;5074009;28;20071;-61
2021/07/31 04:22:27;;;;;;;15.50;8.27;;;;;;;;;;5073867;28;20028;-61
2021/07/31 04:24:53;;;;;;;17.20;8.70;;;;;;;;;;5091923;28;20062;-62
2021/07/31 04:27:20;;;;;;;15.25;8.70;;;;;;;;;;5091809;28;20500;-61
2021/07/31 04:29:46;;;;;;;17.58;8.40;;;;;;;;;;5091975;28;20024;-61
2021/07/31 04:32:12;;;;;;;16.65;8.38;;;;;;;;;;5073826;28;20085;-62
2021/07/31 04:34:38;;;;;;;16.58;8.50;;;;;;;;;;5073626;28;20078;-61
2021/07/31 04:37:05;;;;;;;16.25;8.55;;;;;;;;;;5091510;28;20055;-61
2021/07/31 04:39:32;;;;;;;18.58;8.65;;;;;;;;;;5091582;28;20031;-61
2021/07/31 04:41:58;;;;;;;17.02;8.68;;;;;;;;;;5091916;28;20388;-62
2021/07/31 04:44:25;;;;;;;16.95;9.25;;;;;;;;;;5091635;28;20028;-63
2021/07/31 04:46:51;;;;;;;18.33;9.70;;;;;;;;;;5073503;28;20040;-61
2021/07/31 04:49:17;;;;;;;15.80;9.02;;;;;;;;;;5073426;28;20119;-61
2021/07/31 04:51:44;;;;;;;15.75;8.90;;;;;;;;;;5091553;28;20107;-61
2021/07/31 04:54:10;;;;;;;16.92;9.45;;;;;;;;;;5091456;28;20533;-61
2021/07/31 04:56:36;;;;;;;17.63;9.57;;;;;;;;;;5073240;28;20169;-61
2021/07/31 04:59:02;;;;;;;17.92;8.88;;;;;;;;;;5073293;28;20047;-62
2021/07/31 05:01:28;;;;;;;18.38;8.88;;;;;;;;;;5091520;28;20467;-61
2021/07/31 05:03:54;;;;;;;16.90;9.38;;;;;;;;;;5091408;28;20028;-61
2021/07/31 05:06:22;;;;;;;15.50;9.20;;;;;;;;;;5072920;28;20028;-61
2021/07/31 05:08:48;;;;;;;16.05;9.55;;;;;;;;;;5091078;28;20411;-61
2021/07/31 05:11:14;;;;;;;17.35;9.07;;;;;;;;;;5091206;28;20028;-61
2021/07/31 05:13:40;;;;;;;19.73;9.45;;;;;;;;;;5091145;28;20471;-61
2021/07/31 05:16:06;;;;;;;16.40;9.13;;;;;;;;;;5072719;28;20056;-61
2021/07/31 05:18:32;;;;;;;19.77;10.15;;;;;;;;;;5090640;28;20042;-61
2021/07/31 05:20:59;;;;;;;18.85;9.63;;;;;;;;;;5090913;28;20016;-61
2021/07/31 05:23:25;;;;;;;15.25;8.70;;;;;;;;;;5090931;28;20191;-61
2021/07/31 05:25:51;;;;;;;18.95;8.82;;;;;;;;;;5072647;28;20032;-61
2021/07/31 05:28:19;;;;;;;18.23;9.10;;;;;;;;;;5090998;28;20024;-61
2021/07/31 05:30:45;;;;;;;15.55;9.65;;;;;;;;;;5090675;28;20048;-61
2021/07/31 05:33:11;;;;;;;20.75;9.30;;;;;;;;;;5069299;28;20058;-63
2021/07/31 05:35:37;;;;;;;19.90;9.32;;;;;;;;;;5054976;28;20017;-63
2021/07/31 05:38:03;;;;;;;17.67;9.40;;;;;;;;;;5091907;22;20147;-66
2021/07/31 05:40:29;;;;;;;19.08;9.15;;;;;;;;;;5071810;28;20028;-65
2021/07/31 05:42:55;;;;;;;16.08;8.98;;;;;;;;;;5071730;28;20067;-66
2021/07/31 05:45:21;;;;;;;17.25;9.13;;;;;;;;;;5071346;28;20020;-67
2021/07/31 05:47:47;;;;;;;16.02;9.40;;;;;;;;;;5053842;28;20031;-65
2021/07/31 05:50:13;;;;;;;18.45;8.70;;;;;;;;;;5071578;28;20037;-65
2021/07/31 05:52:39;;;;;;;16.95;9.35;;;;;;;;;;5071781;28;20021;-65
2021/07/31 05:55:07;;;;;;;17.55;9.05;;;;;;;;;;5053986;28;20024;-66
2021/07/31 05:57:33;;;;;;;17.95;8.60;;;;;;;;;;5071711;28;20098;-65
2021/07/31 05:59:59;;;;;;;16.38;8.90;;;;;;;;;;5071822;28;20029;-65
2021/07/31 06:02:25;;;;;;;16.50;8.95;;;;;;;;;;5053881;28;20077;-65
2021/07/31 06:04:51;;;;;;;16.50;8.43;;;;;;;;;;5053742;28;20111;-67
2021/07/31 06:07:17;;;;;;;18.13;8.75;;;;;;;;;;5053290;28;20039;-67
2021/07/31 06:09:50;;;;;;;16.55;9.05;;;;;;;;;;5071479;28;20025;-67
2021/07/31 06:12:16;;;;;;;18.63;9.10;;;;;;;;;;5053681;28;20484;-65
2021/07/31 06:14:42;;;;;;;16.95;9.10;;;;;;;;;;5053674;28;20115;-67
2021/07/31 06:17:08;;;;;;;16.38;8.50;;;;;;;;;;5053273;28;20361;-67
2021/07/31 06:19:34;;;;;;;16.83;8.25;;;;;;;;;;5070786;28;20021;-67
2021/07/31 06:22:03;;;;;;;17.55;8.52;;;;;;;;;;5053065;28;20026;-67
2021/07/31 06:24:30;;;;;;;15.77;8.80;;;;;;;;;;5068474;28;20021;-69
2021/07/31 06:26:56;;;;;;;16.63;8.05;;;;;;;;;;5052787;28;20132;-66
2021/07/31 06:29:22;;;;;;;15.38;8.27;;;;;;;;;;5052847;28;20020;-66
2021/07/31 06:31:49;;;;;;;20.55;8.68;;;;;;;;;;5049957;28;20034;-66
2021/07/31 06:34:15;;;;;;;17.38;9.10;;;;;;;;;;5070850;28;20039;-66
2021/07/31 06:36:42;;;;;;;17.33;9.13;;;;;;;;;;5070604;28;20469;-66
2021/07/31 06:39:08;;;;;;;18.88;9.07;;;;;;;;;;5071203;28;20029;-67
2021/07/31 06:41:34;;;;;;;19.80;8.60;;;;;;;;;;5053406;28;20127;-63
2021/07/31 06:44:00;;;;;;;16.95;8.80;;;;;;;;;;5071018;28;20170;-68
2021/07/31 06:46:27;;;;;;;16.67;8.75;;;;;;;;;;5070995;28;20110;-66
2021/07/31 06:48:54;;;;;;;18.25;8.70;;;;;;;;;;5073298;28;20016;-66
2021/07/31 06:51:20;;;;;;;16.38;8.40;;;;;;;;;;5056655;28;20031;-66
2021/07/31 06:53:47;;;;;;;18.05;8.30;;;;;;;;;;5056749;28;20048;-67
2021/07/31 06:56:14;;;;;;;17.77;8.95;;;;;;;;;;5074291;28;20020;-63
2021/07/31 06:58:40;;;;;;;16.88;8.18;;;;;;;;;;5056890;28;20431;-60
2021/07/31 07:01:12;;;;;;;17.25;9.00;;;;;;;;;;5074616;28;20499;-60
2021/07/31 07:03:38;;;;;;;17.95;9.57;;;;;;;;;;5056628;28;20115;-58
2021/07/31 07:06:09;;;;;;;16.20;9.15;;;;;;;;;;5056261;28;20028;-59
2021/07/31 07:08:35;;;;;;;15.98;8.68;;;;;;;;;;5056347;28;20032;-60
2021/07/31 07:11:02;;;;;;;17.45;9.00;;;;;;;;;;5074244;28;20138;-58
2021/07/31 07:13:28;;;;;;;18.83;9.20;;;;;;;;;;5074214;28;20025;-60
2021/07/31 07:15:54;;;;;;;19.45;9.27;;;;;;;;;;5073997;28;20078;-58
2021/07/31 07:18:20;;;;;;;18.35;9.38;;;;;;;;;;5074193;28;20396;-57
2021/07/31 07:20:48;;;;;;;17.15;9.05;;;;;;;;;;5056249;28;20128;-57
2021/07/31 07:23:14;;;;;;;17.33;9.38;;;;;;;;;;5074028;28;20392;-57
2021/07/31 07:25:42;;;;;;;17.50;9.30;;;;;;;;;;5056040;28;20032;-59
2021/07/31 07:28:08;;;;;;;16.25;8.55;;;;;;;;;;5073963;28;20028;-55
2021/07/31 07:30:34;;;;;;;17.77;9.43;;;;;;;;;;5056209;28;20479;-54
2021/07/31 07:33:02;;;;;;;17.50;9.05;;;;;;;;;;5073669;28;20485;-60
2021/07/31 07:35:28;;;;;;;17.95;8.90;;;;;;;;;;5055768;28;20021;-58
2021/07/31 07:37:54;;;;;;;18.27;8.73;;;;;;;;;;5055450;28;20104;-60
2021/07/31 07:40:20;;;;;;;16.67;9.52;;;;;;;;;;5074006;28;20054;-62
2021/07/31 07:42:46;;;;;;;16.33;9.02;;;;;;;;;;5055714;28;20476;-59
2021/07/31 07:45:12;;;;;;;15.77;8.23;;;;;;;;;;5055311;28;20025;-61
2021/07/31 07:47:38;;;;;;;18.23;8.85;;;;;;;;;;5073422;28;20047;-60
2021/07/31 07:50:05;;;;;;;15.50;8.27;;;;;;;;;;5073433;28;20415;-60
2021/07/31 07:52:31;;;;;;;16.80;9.02;;;;;;;;;;5055557;28;20016;-63
2021/07/31 07:54:57;;;;;;;19.67;9.38;;;;;;;;;;5055780;28;20107;-61
2021/07/31 07:57:23;;;;;;;16.10;8.90;;;;;;;;;;5055117;28;20016;-64
2021/07/31 07:59:49;;;;;;;18.02;8.95;;;;;;;;;;5055349;28;20027;-65
2021/07/31 08:02:15;;;;;;;17.20;8.80;;;;;;;;;;5055353;28;20021;-64
2021/07/31 08:04:44;;;;;;;17.65;9.23;;;;;;;;;;5072949;28;20069;-64
2021/07/31 08:07:10;;;;;;;15.55;8.52;;;;;;;;;;5072858;28;20528;-66
2021/07/31 08:09:37;;;;;;;16.77;9.50;;;;;;;;;;5073515;28;20013;-65
2021/07/31 08:12:04;;;;;;;15.82;8.98;;;;;;;;;;5073442;28;20028;-67
2021/07/31 08:14:30;;;;;;;17.23;8.38;;;;;;;;;;5055394;28;20021;-66
2021/07/31 08:16:57;;;;;;;16.23;8.43;;;;;;;;;;5054845;28;20389;-66
2021/07/31 08:19:23;;;;;;;19.92;8.35;;;;;;;;;;5072983;28;20027;-66
2021/07/31 08:21:49;;;;;;;17.02;9.38;;;;;;;;;;5055276;28;20125;-66
2021/07/31 08:24:16;;;;;;;17.70;9.25;;;;;;;;;;5055278;28;20043;-64
2021/07/31 08:26:43;;;;;;;22.50;9.93;;;;;;;;;;5072952;28;20097;-65
2021/07/31 08:29:10;;;;;;;15.80;9.20;;;;;;;;;;5055060;28;20028;-66
2021/07/31 08:31:39;;;;;;;15.63;8.85;;;;;;;;;;5072773;28;20033;-64
2021/07/31 08:34:05;;;;;;;16.92;9.63;;;;;;;;;;5072705;28;20044;-65
2021/07/31 08:36:31;;;;;;;16.58;9.82;;;;;;;;;;5072444;28;20025;-66
2021/07/31 08:38:57;;;;;;;17.48;9.52;;;;;;;;;;5054636;28;20043;-66
2021/07/31 08:41:24;;;;;;;17.80;9.65;;;;;;;;;;5072571;28;20040;-64
2021/07/31 08:43:50;;;;;;;18.40;9.05;;;;;;;;;;5072192;28;20032;-64
2021/07/31 08:46:16;;;;;;;16.27;9.60;;;;;;;;;;5054221;28;20028;-63
2021/07/31 08:48:42;;;;;;;16.75;9.68;;;;;;;;;;5072151;28;20028;-61
2021/07/31 08:51:09;;;;;;;16.50;8.90;;;;;;;;;;5072209;28;20028;-63
2021/07/31 08:53:36;;;;;;;16.35;9.27;;;;;;;;;;5072488;28;20507;-58
2021/07/31 08:56:02;;;;;;;15.75;9.18;;;;;;;;;;5054050;28;20021;-62
2021/07/31 08:58:29;;;;;;;16.25;9.00;;;;;;;;;;5072025;28;20028;-62
2021/07/31 09:00:56;;;;;;;19.10;9.90;;;;;;;;;;5072412;28;20028;-65
2021/07/31 09:03:22;;;;;;;16.48;8.90;;;;;;;;;;5056238;28;20507;-64
2021/07/31 09:05:48;;;;;;;18.10;9.50;;;;;;;;;;5074479;28;20063;-60
2021/07/31 09:08:15;;;;;;;18.40;8.73;;;;;;;;;;5073570;28;20117;-65
2021/07/31 09:10:45;;;;;;;18.30;9.48;;;;;;;;;;5071564;28;20481;-60
2021/07/31 09:13:20;;;;;;;17.15;9.00;;;;;;;;;;5071164;28;20024;-63
2021/07/31 09:15:52;;;;;;;17.25;9.07;;;;;;;;;;5070719;28;20021;-61
2021/07/31 09:18:34;;;;;;;15.65;8.43;;;;;;;;;;5072072;28;20020;-64
2021/07/31 09:21:09;;;;;;;16.23;9.07;;;;;;;;;;5071833;28;20075;-64
2021/07/31 09:23:46;;;;;;;16.17;9.52;;;;;;;;;;5071589;28;20028;-62
2021/07/31 09:26:35;;;;;;;17.55;8.90;;;;;;;;;;5071270;28;20057;-60
2021/07/31 09:29:02;;;;;;;18.38;8.95;;;;;;;;;;5066273;28;20036;-60
2021/07/31 09:31:28;;;;;;;15.55;8.25;;;;;;;;;;5053818;28;20078;-62
2021/07/31 09:33:57;;;;;;;15.80;8.23;;;;;;;;;;5053712;28;20020;-58
2021/07/31 09:36:23;;;;;;;18.80;8.57;;;;;;;;;;5071357;28;20020;-63
2021/07/31 09:38:49;;;;;;;16.67;9.30;;;;;;;;;;5071268;28;20051;-61
2021/07/31 09:41:21;;;;;;;15.50;8.77;;;;;;;;;;5071353;28;20028;-62
2021/07/31 09:44:09;;;;;;;18.50;10.23;;;;;;;;;;5053249;28;20504;-64
2021/07/31 09:46:39;;;;;;;15.35;8.90;;;;;;;;;;5071326;28;20035;-67
2021/07/31 09:49:06;;;;;;;16.40;8.98;;;;;;;;;;5053173;28;20098;-61
2021/07/31 09:51:52;;;;;;;14.98;8.60;;;;;;;;;;5071425;28;20024;-59
2021/07/31 09:54:18;;;;;;;16.50;8.70;;;;;;;;;;5071577;28;20021;-60
2021/07/31 09:56:48;;;;;;;18.35;9.20;;;;;;;;;;5053159;28;20029;-62
2021/07/31 09:59:16;;;;;;;16.55;8.45;;;;;;;;;;5071210;28;20411;-63
2021/07/31 10:01:46;;;;;;;17.85;8.57;;;;;;;;;;5053111;28;20056;-63
2021/07/31 10:04:12;;;;;;;16.27;9.32;;;;;;;;;;5071262;28;20024;-63
2021/07/31 10:06:38;;;;;;;16.20;8.40;;;;;;;;;;5070872;28;20097;-63
2021/07/31 10:09:05;;;;;;;17.75;8.10;;;;;;;;;;5052968;28;20035;-62
2021/07/31 10:11:36;;;;;;;15.05;8.30;;;;;;;;;;5053064;28;20024;-61
2021/07/31 10:14:03;;;;;;;20.98;9.27;;;;;;;;;;5071061;28;20107;-63
2021/07/31 10:16:30;;;;;;;16.67;8.60;;;;;;;;;;5053024;28;20025;-61
2021/07/31 10:18:57;;;;;;;15.77;8.80;;;;;;;;;;5071150;28;20028;-57
2021/07/31 10:21:24;;;;;;;15.85;8.65;;;;;;;;;;5053181;28;20021;-63
2021/07/31 10:23:57;;;;;;;23.23;9.65;;;;;;;;;;5074460;28;20112;-60
2021/07/31 10:26:23;;;;;;;16.33;9.35;;;;;;;;;;5056735;28;20024;-62
2021/07/31 10:28:49;;;;;;;17.50;9.38;;;;;;;;;;5074454;28;20443;-63
2021/07/31 10:31:28;;;;;;;15.73;9.68;;;;;;;;;;5074798;28;20115;-64
2021/07/31 10:33:54;;;;;;;18.42;9.70;;;;;;;;;;5056536;28;20023;-61
2021/07/31 10:36:27;;;;;;;19.05;10.18;;;;;;;;;;5074225;28;20035;-63
2021/07/31 10:38:53;;;;;;;16.23;10.38;;;;;;;;;;5056610;28;20405;-63
2021/07/31 10:41:38;;;;;;;16.40;10.30;;;;;;;;;;5056762;28;20043;-62
2021/07/31 10:44:10;;;;;;;18.13;9.75;;;;;;;;;;5074496;28;20028;-60
2021/07/31 10:46:39;;;;;;;16.27;10.32;;;;;;;;;;5056334;28;20480;-61
2021/07/31 10:49:23;;;;;;;16.23;10.27;;;;;;;;;;5074450;28;20028;-61
2021/07/31 10:51:49;;;;;;;16.88;10.13;;;;;;;;;;5074459;28;20107;-62
2021/07/31 10:54:15;;;;;;;17.58;10.07;;;;;;;;;;5074349;28;20071;-62
2021/07/31 10:56:57;;;;;;;17.50;10.48;;;;;;;;;;5056970;28;20021;-63
2021/07/31 10:59:23;;;;;;;18.48;9.35;;;;;;;;;;5074491;28;20020;-60
2021/07/31 11:01:49;;;;;;;15.82;10.10;;;;;;;;;;5074627;28;20032;-63
2021/07/31 11:04:34;;;;;;;17.83;10.10;;;;;;;;;;5074518;28;20032;-63
2021/07/31 11:07:10;;;;;;;17.08;10.40;;;;;;;;;;5073570;28;20043;-61
2021/07/31 11:09:36;;;;;;;16.77;9.85;;;;;;;;;;5055827;28;20035;-61
2021/07/31 11:12:21;;;;;;;16.10;10.13;;;;;;;;;;5074338;28;20028;-63
2021/07/31 11:15:06;;;;;;;18.33;9.82;;;;;;;;;;5074161;28;20028;-58
2021/07/31 11:17:32;;;;;;;16.30;9.45;;;;;;;;;;5074080;28;20439;-58
2021/07/31 11:19:58;;;;;;;15.07;9.80;;;;;;;;;;5074011;28;20043;-60
2021/07/31 11:22:26;;;;;;;16.95;10.18;;;;;;;;;;5073639;28;20418;-62
2021/07/31 11:24:55;;;;;;;16.10;9.60;;;;;;;;;;5074032;28;20046;-61
2021/07/31 11:27:21;;;;;;;16.63;10.13;;;;;;;;;;5055725;28;20064;-62
2021/07/31 11:29:55;;;;;;;16.88;9.80;;;;;;;;;;5055907;28;20082;-60
2021/07/31 11:32:27;;;;;;;15.68;9.40;;;;;;;;;;5073953;28;20025;-62
2021/07/31 11:34:53;;;;;;;16.63;10.10;;;;;;;;;;5055038;28;20024;-61
2021/07/31 11:37:21;;;;;;;15.88;9.68;;;;;;;;;;5073544;28;20115;-61
2021/07/31 11:39:47;;;;;;;15.90;10.10;;;;;;;;;;5096771;22;20500;-65
2021/07/31 11:42:20;;;;;;;15.70;9.38;;;;;;;;;;5074084;28;20025;-62
2021/07/31 11:44:46;;;;;;;16.33;9.95;;;;;;;;;;5056538;28;20127;-64
2021/07/31 11:47:12;;;;;;;16.05;9.70;;;;;;;;;;5055634;28;20496;-63
2021/07/31 11:49:41;;;;;;;16.35;9.85;;;;;;;;;;5058762;28;20134;-61
2021/07/31 11:52:08;;;;;;;16.45;9.82;;;;;;;;;;5056025;28;20028;-61
2021/07/31 11:54:38;;;;;;;16.13;9.65;;;;;;;;;;5073729;28;20024;-62
2021/07/31 11:57:04;;;;;;;16.58;10.32;;;;;;;;;;5073445;28;20052;-64
2021/07/31 11:59:31;;;;;;;16.85;9.60;;;;;;;;;;5055748;28;20117;-63
2021/07/31 12:01:58;;;;;;;15.35;9.27;;;;;;;;;;5073579;28;20037;-63
2021/07/31 12:04:43;;;;;;;15.55;9.40;;;;;;;;;;5055502;28;20024;-62
2021/07/31 12:07:18;;;;;;;16.17;9.30;;;;;;;;;;5073249;28;20128;-62
2021/07/31 12:09:58;;;;;;;16.80;9.30;;;;;;;;;;5073586;28;20035;-63
2021/07/31 12:12:25;;;;;;;16.75;8.45;;;;;;;;;;5073484;28;20024;-63
2021/07/31 12:15:09;;;;;;;16.05;8.90;;;;;;;;;;5073116;28;20024;-62
2021/07/31 12:17:37;;;;;;;16.35;9.13;;;;;;;;;;5073209;28;20050;-63
2021/07/31 12:20:03;;;;;;;18.38;9.68;;;;;;;;;;5073130;28;20029;-63
2021/07/31 12:22:31;;;;;;;18.20;9.50;;;;;;;;;;5054787;28;20029;-63
2021/07/31 12:25:09;;;;;;;16.45;9.30;;;;;;;;;;5073230;28;20025;-64
2021/07/31 12:27:54;;;;;;;18.42;9.25;;;;;;;;;;5072683;28;20549;-64
2021/07/31 12:30:25;;;;;;;17.17;9.73;;;;;;;;;;5073061;28;20396;-63
2021/07/31 12:32:51;;;;;;;18.42;10.23;;;;;;;;;;5072710;28;20126;-63
2021/07/31 12:35:32;;;;;;;17.85;10.65;;;;;;;;;;5054463;28;20025;-64
2021/07/31 12:37:58;;;;;;;16.40;10.18;;;;;;;;;;5052986;28;20025;-63
2021/07/31 12:40:24;;;;;;;17.05;10.35;;;;;;;;;;5052467;28;20035;-63
2021/07/31 12:42:50;;;;;;;16.92;10.80;;;;;;;;;;5051938;28;20122;-63
2021/07/31 12:45:17;;;;;;;18.08;11.07;;;;;;;;;;5050658;28;20444;-63
2021/07/31 12:47:43;;;;;;;16.42;10.52;;;;;;;;;;5050625;28;20078;-63
2021/07/31 12:50:09;;;;;;;18.40;10.80;;;;;;;;;;5050364;28;20025;-63
2021/07/31 12:52:35;;;;;;;17.60;10.60;;;;;;;;;;5050276;28;20535;-64
2021/07/31 12:55:01;;;;;;;19.27;10.82;;;;;;;;;;5051045;28;20025;-64
2021/07/31 12:57:27;;;;;;;18.13;10.63;;;;;;;;;;5050063;28;20462;-64
2021/07/31 12:59:53;;;;;;;17.45;10.35;;;;;;;;;;5052405;28;20025;-64
2021/07/31 13:02:19;;;;;;;17.48;10.30;;;;;;;;;;5050419;28;20476;-64
2021/07/31 13:04:45;;;;;;;17.92;15.05;;;;;;;;;;5050401;28;20033;-64
2021/07/31 13:07:11;;;;;;;19.45;14.98;;;;;;;;;;5051387;28;20052;-64
2021/07/31 13:09:37;;;;;;;21.17;15.05;;;;;;;;;;5050615;28;20116;-63
2021/07/31 13:12:03;;;;;;;17.42;13.43;;;;;;;;;;5051187;28;20037;-62
2021/07/31 13:14:29;;;;;;;17.73;12.27;;;;;;;;;;5050054;28;20021;-63
2021/07/31 13:16:55;;;;;;;18.00;12.32;;;;;;;;;;5059687;28;20032;-62
2021/07/31 13:19:21;;;;;;;16.73;12.68;;;;;;;;;;5042494;28;20392;-62
2021/07/31 13:21:47;;;;;;;19.85;15.18;;;;;;;;;;5042826;28;20085;-62
2021/07/31 13:24:13;;;;;;;21.40;17.63;;;;;;;;;;5041142;28;20049;-62
2021/07/31 13:26:39;;;;;;;22.25;18.73;;;;;;;;;;5060364;28;20396;-62
2021/07/31 13:29:05;;;;;;;23.13;18.60;;;;;;;;;;5060579;28;20024;-63
2021/07/31 13:31:31;;;;;;;22.67;18.95;;;;;;;;;;5040923;28;20035;-63
2021/07/31 13:33:59;;;;;;;22.90;18.88;;;;;;;;;;5055796;28;20025;-62
2021/07/31 13:36:26;;;;;;;23.30;20.88;;;;;;;;;;5059691;28;20025;-63
2021/07/31 13:38:58;;;;;;;22.33;19.93;;;;;;;;;;5013448;28;1056422;-62
2021/07/31 13:41:24;;;;;;;21.52;18.25;;;;;;;;;;5051765;28;20055;-63
2021/07/31 13:43:50;;;;;;;22.27;18.67;;;;;;;;;;5051811;28;20480;-63
2021/07/31 13:46:17;;;;;;;21.92;16.65;;;;;;;;;;5033569;28;20025;-63
2021/07/31 13:48:43;;;;;;;20.40;16.25;;;;;;;;;;5051973;28;20086;-63
2021/07/31 13:51:08;;;;;;;21.80;17.30;;;;;;;;;;5033503;28;20119;-63
2021/07/31 13:53:35;;;;;;;24.70;19.35;;;;;;;;;;5033678;28;20013;-63
2021/07/31 13:56:02;;;;;;;22.95;20.10;;;;;;;;;;5051991;28;20473;-62
2021/07/31 13:58:29;;;;;;;20.52;16.70;;;;;;;;;;5041341;28;20344;-63
2021/07/31 14:00:55;;;;;;;22.20;18.90;;;;;;;;;;5067611;28;20079;-62
2021/07/31 14:03:21;;;;;;;25.10;22.38;;;;;;;;;;5075331;28;20021;-62
2021/07/31 14:05:47;;;;;;;22.52;20.08;;;;;;;;;;5078014;28;20040;-63
2021/07/31 14:08:13;;;;;;;27.75;25.00;;;;;;;;;;5078186;28;20024;-62
2021/07/31 14:10:39;;;;;;;26.50;24.08;;;;;;;;;;5072737;28;20051;-63
2021/07/31 14:13:06;;;;;;;25.85;23.40;;;;;;;;;;5068877;28;20046;-62
2021/07/31 14:15:32;;;;;;;25.88;23.27;;;;;;;;;;5066882;28;20104;-62
2021/07/31 14:17:58;;;;;;;27.40;24.80;;;;;;;;;;5066928;28;20051;-62
2021/07/31 14:20:24;;;;;;;31.23;28.52;;;;;;;;;;5050900;28;20028;-61
2021/07/31 14:22:50;;;;;;;32.72;29.63;;;;;;;;;;5049216;28;20032;-62
2021/07/31 14:25:16;;;;;;;29.00;26.33;;;;;;;;;;5067245;28;20119;-62
2021/07/31 14:27:42;;;;;;;27.40;24.85;;;;;;;;;;5068843;28;20361;-61
2021/07/31 14:30:08;;;;;;;24.80;22.38;;;;;;;;;;5067259;28;20029;-62